createdAt,value
2017-10-24T00:02:14.651Z,18.50
2017-10-24T00:04:42.091Z,17.13
2017-10-24T00:07:10.246Z,21.00
2017-10-24T00:09:37.687Z,17.40
2017-10-24T00:12:05.894Z,19.87
2017-10-24T00:14:33.333Z,19.50
2017-10-24T00:17:00.792Z,22.50
2017-10-24T00:19:28.769Z,17.77
2017-10-24T00:21:56.786Z,18.77
2017-10-24T00:24:24.235Z,19.23
2017-10-24T00:26:52.011Z,18.40
2017-10-24T00:29:19.451Z,21.27
2017-10-24T00:31:46.907Z,20.00
2017-10-24T00:34:14.348Z,19.13
2017-10-24T00:36:41.814Z,19.20
2017-10-24T00:39:09.753Z,18.33
2017-10-24T00:41:37.192Z,18.30
2017-10-24T00:44:05.931Z,16.63
2017-10-24T00:46:34.135Z,16.40
2017-10-24T00:49:02.343Z,15.37
2017-10-24T00:51:29.782Z,15.67
2017-10-24T00:53:57.993Z,14.90
2017-10-24T00:56:26.064Z,15.90
2017-10-24T00:58:53.618Z,11.07
2017-10-24T01:01:21.516Z,15.60
2017-10-24T01:03:48.949Z,12.57
2017-10-24T01:06:16.393Z,12.17
2017-10-24T01:08:44.095Z,14.03
2017-10-24T01:11:12.071Z,12.97
2017-10-24T01:13:40.435Z,12.90
2017-10-24T01:16:07.882Z,13.43
2017-10-24T01:18:35.891Z,12.73
2017-10-24T01:21:04.494Z,12.30
2017-10-24T01:23:32.683Z,16.97
2017-10-24T01:26:00.737Z,13.33
2017-10-24T01:28:28.143Z,16.57
2017-10-24T01:30:56.158Z,13.37
2017-10-24T01:33:24.910Z,17.07
2017-10-24T01:35:52.355Z,12.47
2017-10-24T01:38:19.787Z,18.70
2017-10-24T01:40:47.863Z,14.37
2017-10-24T01:43:15.881Z,14.87
2017-10-24T01:45:43.750Z,16.60
2017-10-24T01:48:11.189Z,17.63
2017-10-24T01:50:39.038Z,17.03
2017-10-24T01:53:06.586Z,16.30
2017-10-24T01:55:34.013Z,16.97
2017-10-24T01:58:01.453Z,18.03
2017-10-24T02:00:29.668Z,16.80
2017-10-24T02:02:57.114Z,15.67
2017-10-24T02:05:26.630Z,16.53
2017-10-24T02:07:54.089Z,17.10
2017-10-24T02:10:24.927Z,23.70
2017-10-24T02:12:52.383Z,17.67
2017-10-24T02:15:19.843Z,17.60
2017-10-24T02:17:47.386Z,16.70
2017-10-24T02:20:14.834Z,22.00
2017-10-24T02:22:42.286Z,22.53
2017-10-24T02:25:10.487Z,19.70
2017-10-24T02:27:37.943Z,21.83
2017-10-24T02:30:06.225Z,26.00
2017-10-24T02:32:33.683Z,19.70
2017-10-24T02:35:01.546Z,21.43
2017-10-24T02:37:28.999Z,20.07
2017-10-24T02:39:56.457Z,26.57
2017-10-24T02:42:23.909Z,25.33
2017-10-24T02:44:51.355Z,25.60
2017-10-24T02:47:18.808Z,23.03
2017-10-24T02:49:46.246Z,22.90
2017-10-24T02:52:14.459Z,21.97
2017-10-24T02:54:41.901Z,26.63
2017-10-24T02:57:09.887Z,26.63
2017-10-24T02:59:37.337Z,24.27
2017-10-24T03:02:04.791Z,21.60
2017-10-24T03:04:32.462Z,24.30
2017-10-24T03:06:59.914Z,26.13
2017-10-24T03:09:27.749Z,22.83
2017-10-24T03:11:55.786Z,23.20
2017-10-24T03:14:23.222Z,29.53
2017-10-24T03:16:51.459Z,25.30
2017-10-24T03:19:19.666Z,24.40
2017-10-24T03:21:50.858Z,22.07
2017-10-24T03:24:18.704Z,24.63
2017-10-24T03:26:46.949Z,22.63
2017-10-24T03:29:14.383Z,26.73
2017-10-24T03:31:41.834Z,25.97
2017-10-24T03:34:10.046Z,21.47
2017-10-24T03:36:37.490Z,23.20
2017-10-24T03:39:04.936Z,27.73
2017-10-24T03:41:32.506Z,24.60
2017-10-24T03:43:59.938Z,32.03
2017-10-24T03:46:29.129Z,33.57
2017-10-24T03:48:57.340Z,36.63
2017-10-24T03:51:24.781Z,41.63
2017-10-24T03:53:52.218Z,37.93
2017-10-24T03:56:20.999Z,42.07
2017-10-24T03:58:49.211Z,39.73
2017-10-24T04:01:17.086Z,42.73
2017-10-24T04:03:44.536Z,39.67
2017-10-24T04:06:11.975Z,41.10
2017-10-24T04:08:40.191Z,37.23
2017-10-24T04:11:07.644Z,38.17
2017-10-24T04:13:35.916Z,46.80
2017-10-24T04:16:03.364Z,46.70
2017-10-24T04:18:30.814Z,48.63
2017-10-24T04:20:58.246Z,40.83
2017-10-24T04:23:26.907Z,49.43
2017-10-24T04:25:54.350Z,50.50
2017-10-24T04:28:21.802Z,48.07
2017-10-24T04:30:49.253Z,52.87
2017-10-24T04:33:16.707Z,47.43
2017-10-24T04:35:44.583Z,49.27
2017-10-24T04:38:12.142Z,49.93
2017-10-24T04:40:39.593Z,51.47
2017-10-24T04:43:07.031Z,44.23
2017-10-24T04:45:34.476Z,51.63
2017-10-24T04:48:02.339Z,46.00
2017-10-24T04:50:30.602Z,46.43
2017-10-24T04:52:58.847Z,50.40
2017-10-24T04:55:32.875Z,51.97
2017-10-24T04:58:01.093Z,52.57
2017-10-24T05:00:28.530Z,57.60
2017-10-24T05:02:55.984Z,50.13
2017-10-24T05:05:24.184Z,52.40
2017-10-24T05:07:51.642Z,50.73
2017-10-24T05:10:21.556Z,53.03
2017-10-24T05:12:49.014Z,51.90
2017-10-24T05:15:16.463Z,49.10
2017-10-24T05:17:43.899Z,49.47
2017-10-24T05:20:11.343Z,56.30
2017-10-24T05:22:40.104Z,58.77
2017-10-24T05:25:07.556Z,50.57
2017-10-24T05:27:35.260Z,48.10
2017-10-24T05:30:03.663Z,56.03
2017-10-24T05:32:31.140Z,53.23
2017-10-24T05:34:59.120Z,48.97
2017-10-24T05:37:26.559Z,52.40
2017-10-24T05:39:54.547Z,53.47
2017-10-24T05:42:22.514Z,48.20
2017-10-24T05:44:50.149Z,45.73
2017-10-24T05:47:18.126Z,52.00
2017-10-24T05:49:45.586Z,46.43
2017-10-24T05:52:13.291Z,50.93
2017-10-24T05:54:40.727Z,51.30
2017-10-24T05:57:08.166Z,43.20
2017-10-24T05:59:35.619Z,46.23
2017-10-24T06:02:03.784Z,54.53
2017-10-24T06:04:31.230Z,44.80
2017-10-24T06:06:58.668Z,45.37
2017-10-24T06:09:26.874Z,51.60
2017-10-24T06:11:54.306Z,46.00
2017-10-24T06:14:21.751Z,47.60
2017-10-24T06:16:49.958Z,49.90
2017-10-24T06:19:17.420Z,52.90
2017-10-24T06:21:45.079Z,48.47
2017-10-24T06:24:13.246Z,43.17
2017-10-24T06:26:40.688Z,45.70
2017-10-24T06:29:08.170Z,43.23
2017-10-24T06:31:37.035Z,46.10
2017-10-24T06:34:07.037Z,40.90
2017-10-24T06:36:35.680Z,39.80
2017-10-24T06:39:03.124Z,36.23
2017-10-24T06:41:33.055Z,44.37
2017-10-24T06:44:00.494Z,39.97
2017-10-24T06:46:27.953Z,39.63
2017-10-24T06:48:55.492Z,38.93
2017-10-24T06:51:23.175Z,36.33
2017-10-24T06:53:50.621Z,29.77
2017-10-24T06:56:18.067Z,31.97
2017-10-24T06:58:45.520Z,29.37
2017-10-24T07:01:12.966Z,27.20
2017-10-24T07:03:41.734Z,25.90
2017-10-24T07:06:09.801Z,28.97
2017-10-24T07:08:37.252Z,23.40
2017-10-24T07:11:04.701Z,26.37
2017-10-24T07:13:32.694Z,23.47
2017-10-24T07:16:00.913Z,19.17
2017-10-24T07:18:28.359Z,18.37
2017-10-24T07:20:56.236Z,23.10
2017-10-24T07:23:24.428Z,20.40
2017-10-24T07:25:58.380Z,20.20
2017-10-24T07:28:26.587Z,19.17
2017-10-24T07:30:54.051Z,14.83
2017-10-24T07:33:21.491Z,20.13
2017-10-24T07:35:48.955Z,16.23
2017-10-24T07:38:16.395Z,16.63
2017-10-24T07:40:44.624Z,14.47
2017-10-24T07:43:12.070Z,14.33
2017-10-24T07:45:39.511Z,15.60
2017-10-24T07:48:06.974Z,13.47
2017-10-24T07:50:34.422Z,13.20
2017-10-24T07:53:01.857Z,9.50
2017-10-24T07:55:31.017Z,15.90
2017-10-24T07:57:58.472Z,10.10
2017-10-24T08:00:26.176Z,11.33
2017-10-24T08:02:54.392Z,11.23
2017-10-24T08:05:21.823Z,12.23
2017-10-24T08:07:49.268Z,10.20
2017-10-24T08:10:16.987Z,9.20
2017-10-24T08:12:44.424Z,9.83
2017-10-24T08:15:12.407Z,10.30
2017-10-24T08:17:39.848Z,8.63
2017-10-24T08:20:07.322Z,9.33
2017-10-24T08:22:35.202Z,8.07
2017-10-24T08:25:02.854Z,8.50
2017-10-24T08:27:30.725Z,10.40
2017-10-24T08:29:58.152Z,8.60
2017-10-24T08:32:25.606Z,11.00
2017-10-24T08:34:53.931Z,9.47
2017-10-24T08:37:21.390Z,10.30
2017-10-24T08:39:49.615Z,10.73
2017-10-24T08:42:17.497Z,10.07
2017-10-24T08:44:44.955Z,8.90
2017-10-24T08:47:12.379Z,9.80
2017-10-24T08:49:40.362Z,8.23
2017-10-24T08:52:07.785Z,9.27
2017-10-24T08:54:36.001Z,9.63
2017-10-24T08:57:05.751Z,9.73
2017-10-24T08:59:33.190Z,10.83
2017-10-24T09:02:00.631Z,9.53
2017-10-24T09:04:28.084Z,9.13
2017-10-24T09:06:56.295Z,9.87
2017-10-24T09:12:23.788Z,10.10
2017-10-24T09:14:51.226Z,9.97
2017-10-24T09:17:53.760Z,9.97
2017-10-24T09:20:36.813Z,8.20
2017-10-24T09:23:04.676Z,11.20
2017-10-24T09:25:32.122Z,8.90
2017-10-24T09:27:59.563Z,9.27
2017-10-24T09:30:27.510Z,11.87
2017-10-24T09:32:54.958Z,8.73
2017-10-24T09:35:23.175Z,7.67
2017-10-24T09:37:50.620Z,7.43
2017-10-24T09:40:18.335Z,6.47
2017-10-24T09:42:45.772Z,11.13
2017-10-24T09:45:13.981Z,8.57
2017-10-24T09:47:42.198Z,6.03
2017-10-24T09:50:09.661Z,5.63
2017-10-24T09:52:37.104Z,9.67
2017-10-24T09:55:04.550Z,6.33
2017-10-24T09:57:32.000Z,4.80
2017-10-24T09:59:59.443Z,4.97
2017-10-24T10:02:27.640Z,4.57
2017-10-24T10:04:55.102Z,4.17
2017-10-24T10:07:22.530Z,4.40
2017-10-24T10:09:51.258Z,4.03
2017-10-24T10:12:19.229Z,4.00
2017-10-24T10:14:47.200Z,4.10
2017-10-24T10:17:14.655Z,4.13
2017-10-24T10:19:42.098Z,4.90
2017-10-24T10:22:11.159Z,3.93
2017-10-24T10:24:39.372Z,3.93
2017-10-24T10:27:06.811Z,5.03
2017-10-24T10:29:34.258Z,3.23
2017-10-24T10:32:02.467Z,3.37
2017-10-24T10:34:30.141Z,3.00
2017-10-24T10:36:57.575Z,3.17
2017-10-24T10:39:25.044Z,3.83
2017-10-24T10:41:52.463Z,3.57
2017-10-24T10:44:20.667Z,3.10
2017-10-24T10:46:48.119Z,4.53
2017-10-24T10:49:15.564Z,4.20
2017-10-24T10:54:38.989Z,3.27
2017-10-24T11:00:00.350Z,3.43
2017-10-24T11:02:27.785Z,4.57
2017-10-24T11:04:55.247Z,4.73
2017-10-24T11:07:23.153Z,5.37
2017-10-24T11:09:51.383Z,2.93
2017-10-24T11:12:18.798Z,2.17
2017-10-24T11:14:46.238Z,3.70
2017-10-24T11:17:14.440Z,2.90
2017-10-24T11:19:41.905Z,2.70
2017-10-24T11:22:09.347Z,3.40
2017-10-24T11:24:36.785Z,3.17
2017-10-24T11:27:04.988Z,2.50
2017-10-24T11:29:32.435Z,5.93
2017-10-24T11:31:59.875Z,4.73
2017-10-24T11:34:28.076Z,3.30
2017-10-24T11:39:48.946Z,2.60
2017-10-24T11:42:16.539Z,3.57
2017-10-24T11:44:43.990Z,2.53
2017-10-24T11:47:12.178Z,3.60
2017-10-24T11:49:39.707Z,2.33
2017-10-24T11:52:07.151Z,2.83
2017-10-24T11:54:34.605Z,4.67
2017-10-24T11:57:02.046Z,1.97
2017-10-24T11:59:29.493Z,2.00
2017-10-24T12:01:56.931Z,2.57
2017-10-24T12:04:24.392Z,2.90
2017-10-24T12:06:51.835Z,1.80
2017-10-24T12:09:19.318Z,2.43
2017-10-24T12:11:46.772Z,4.80
2017-10-24T12:14:14.211Z,5.47
2017-10-24T12:16:41.636Z,1.97
2017-10-24T12:19:09.859Z,1.90
2017-10-24T12:21:37.316Z,1.53
2017-10-24T12:24:04.772Z,2.00
2017-10-24T12:26:32.226Z,1.20
2017-10-24T12:28:59.646Z,1.93
2017-10-24T12:31:27.856Z,1.50
2017-10-24T12:33:55.316Z,1.93
2017-10-24T12:36:22.765Z,2.77
2017-10-24T12:38:50.194Z,1.77
2017-10-24T12:41:18.403Z,1.60
2017-10-24T12:43:49.278Z,1.80
2017-10-24T12:46:31.591Z,1.60
2017-10-24T12:48:59.826Z,1.80
2017-10-24T12:51:27.268Z,1.53
2017-10-24T12:53:54.712Z,5.73
2017-10-24T12:56:22.155Z,2.60
2017-10-24T12:58:50.368Z,3.53
2017-10-24T13:01:17.810Z,1.83
2017-10-24T13:03:45.274Z,2.17
2017-10-24T13:06:12.720Z,1.73
2017-10-24T13:08:40.147Z,1.67
2017-10-24T13:11:07.590Z,4.03
2017-10-24T13:13:35.014Z,1.73
2017-10-24T13:16:02.522Z,1.40
2017-10-24T13:18:29.958Z,1.67
2017-10-24T13:20:57.404Z,3.27
2017-10-24T13:23:24.833Z,3.10
2017-10-24T13:25:52.296Z,1.90
2017-10-24T13:28:19.744Z,1.83
2017-10-24T13:30:47.185Z,2.10
2017-10-24T13:33:14.624Z,2.37
2017-10-24T13:35:42.064Z,2.40
2017-10-24T13:38:09.502Z,2.00
2017-10-24T13:40:36.963Z,2.63
2017-10-24T13:43:04.400Z,3.10
2017-10-24T13:45:31.867Z,2.97
2017-10-24T13:47:59.304Z,2.97
2017-10-24T13:50:26.751Z,2.77
2017-10-24T13:52:54.216Z,8.13
2017-10-24T13:55:21.645Z,3.27
2017-10-24T13:57:49.860Z,4.67
2017-10-24T14:00:17.300Z,2.73
2017-10-24T14:02:44.752Z,2.83
2017-10-24T14:05:17.821Z,3.00
2017-10-24T14:07:51.664Z,3.77
2017-10-24T14:10:24.736Z,2.67
2017-10-24T14:12:52.179Z,3.00
2017-10-24T14:15:20.821Z,3.03
2017-10-24T14:17:48.296Z,3.27
2017-10-24T14:20:15.731Z,3.33
2017-10-24T14:22:43.180Z,4.30
2017-10-24T14:25:10.611Z,4.53
2017-10-24T14:27:38.616Z,4.77
2017-10-24T14:30:06.431Z,4.83
2017-10-24T14:32:34.622Z,5.07
2017-10-24T14:35:02.663Z,5.47
2017-10-24T14:37:30.874Z,4.93
2017-10-24T14:39:58.375Z,4.50
2017-10-24T14:42:26.358Z,5.03
2017-10-24T14:44:54.803Z,5.37
2017-10-24T14:47:22.246Z,5.77
2017-10-24T14:49:49.690Z,5.60
2017-10-24T14:52:17.566Z,6.17
2017-10-24T14:54:44.988Z,6.70
2017-10-24T14:57:13.195Z,6.53
2017-10-24T14:59:42.564Z,6.13
2017-10-24T15:02:11.075Z,5.63
2017-10-24T15:04:38.931Z,5.53
2017-10-24T15:07:06.369Z,5.97
2017-10-24T15:09:34.567Z,5.60
2017-10-24T15:12:02.003Z,5.33
2017-10-24T15:14:30.207Z,5.37
2017-10-24T15:16:57.631Z,5.67
2017-10-24T15:19:25.848Z,5.63
2017-10-24T15:21:53.276Z,5.77
2017-10-24T15:24:20.714Z,5.33
2017-10-24T15:26:48.924Z,5.13
2017-10-24T15:29:16.357Z,5.47
2017-10-24T15:31:44.376Z,5.70
2017-10-24T15:34:11.855Z,5.87
2017-10-24T15:36:41.707Z,5.33
2017-10-24T15:39:09.897Z,5.60
2017-10-24T15:41:38.103Z,5.97
2017-10-24T15:44:05.555Z,5.60
2017-10-24T15:46:32.994Z,5.57
2017-10-24T15:49:00.857Z,5.00
2017-10-24T15:51:28.283Z,7.97
2017-10-24T15:53:56.505Z,5.73
2017-10-24T15:56:23.950Z,5.60
2017-10-24T15:58:51.638Z,6.00
2017-10-24T16:01:19.451Z,5.33
2017-10-24T16:03:47.639Z,4.77
2017-10-24T16:06:15.097Z,4.13
2017-10-24T16:08:42.542Z,4.27
2017-10-24T16:11:09.978Z,3.80
2017-10-24T16:13:38.196Z,4.20
2017-10-24T16:16:06.230Z,4.90
2017-10-24T16:18:34.447Z,4.67
2017-10-24T16:21:01.887Z,4.87
2017-10-24T16:23:29.352Z,4.63
2017-10-24T16:25:57.216Z,5.23
2017-10-24T16:28:24.648Z,4.87
2017-10-24T16:30:52.852Z,4.90
2017-10-24T16:33:20.303Z,5.27
2017-10-24T16:35:47.765Z,4.83
2017-10-24T16:38:15.232Z,6.23
2017-10-24T16:40:42.700Z,6.30
2017-10-24T16:43:10.152Z,7.20
2017-10-24T16:45:37.611Z,7.03
2017-10-24T16:48:05.046Z,7.50
2017-10-24T16:50:32.485Z,8.30
2017-10-24T16:53:00.868Z,8.07
2017-10-24T16:55:29.062Z,9.50
2017-10-24T16:57:56.501Z,9.93
2017-10-24T17:00:23.972Z,10.63
2017-10-24T17:02:51.415Z,10.83
2017-10-24T17:05:19.304Z,9.47
2017-10-24T17:07:46.775Z,11.67
2017-10-24T17:10:14.211Z,9.60
2017-10-24T17:12:41.672Z,12.60
2017-10-24T17:15:09.126Z,11.07
2017-10-24T17:17:36.580Z,10.30
2017-10-24T17:20:04.014Z,11.77
2017-10-24T17:22:31.487Z,11.63
2017-10-24T17:24:58.931Z,10.20
2017-10-24T17:27:27.138Z,10.17
2017-10-24T17:29:54.575Z,10.97
2017-10-24T17:32:22.055Z,12.67
2017-10-24T17:34:49.498Z,10.07
2017-10-24T17:37:16.969Z,10.77
2017-10-24T17:39:46.991Z,9.07
2017-10-24T17:42:14.426Z,8.90
2017-10-24T17:44:42.527Z,10.00
2017-10-24T17:47:09.967Z,8.33
2017-10-24T17:49:37.418Z,8.73
2017-10-24T17:52:04.966Z,8.77
2017-10-24T17:54:32.512Z,8.03
2017-10-24T17:57:02.723Z,8.83
2017-10-24T17:59:30.947Z,8.60
2017-10-24T18:01:58.399Z,8.83
2017-10-24T18:04:26.267Z,9.27
2017-10-24T18:06:53.809Z,8.53
2017-10-24T18:09:21.242Z,8.80
2017-10-24T18:11:49.442Z,7.77
2017-10-24T18:14:16.910Z,8.73
2017-10-24T18:16:44.342Z,9.57
2017-10-24T18:19:11.784Z,9.77
2017-10-24T18:21:40.031Z,9.73
2017-10-24T18:24:10.531Z,10.67
2017-10-24T18:26:37.993Z,11.70
2017-10-24T18:29:05.446Z,12.57
2017-10-24T18:31:32.894Z,15.30
2017-10-24T18:34:00.341Z,13.10
2017-10-24T18:36:27.844Z,12.77
2017-10-24T18:38:55.310Z,12.57
2017-10-24T18:41:23.203Z,10.40
2017-10-24T18:43:51.420Z,11.00
2017-10-24T18:46:18.878Z,10.70
2017-10-24T18:48:46.334Z,15.83
2017-10-24T18:51:13.820Z,15.53
2017-10-24T18:53:41.281Z,11.73
2017-10-24T18:56:09.168Z,10.60
2017-10-24T18:58:37.982Z,11.93
2017-10-24T19:01:05.422Z,10.60
2017-10-24T19:03:33.648Z,10.93
2017-10-24T19:06:01.082Z,11.53
2017-10-24T19:08:28.538Z,10.37
2017-10-24T19:10:55.976Z,10.67
2017-10-24T19:13:24.217Z,10.57
2017-10-24T19:15:51.662Z,12.97
2017-10-24T19:18:19.117Z,14.90
2017-10-24T19:20:47.091Z,13.17
2017-10-24T19:23:14.548Z,9.70
2017-10-24T19:25:42.010Z,13.17
2017-10-24T19:28:09.461Z,10.07
2017-10-24T19:30:36.907Z,12.27
2017-10-24T19:33:10.732Z,12.80
2017-10-24T19:35:38.423Z,13.50
2017-10-24T19:38:06.635Z,13.30
2017-10-24T19:40:34.091Z,10.70
2017-10-24T19:43:01.545Z,10.57
2017-10-24T19:45:29.003Z,11.50
2017-10-24T19:47:56.434Z,11.23
2017-10-24T19:50:24.550Z,11.90
2017-10-24T19:52:52.499Z,14.60
2017-10-24T19:55:20.359Z,17.30
2017-10-24T19:57:47.806Z,10.47
2017-10-24T20:00:15.246Z,10.20
2017-10-24T20:02:43.459Z,14.77
2017-10-24T20:05:10.907Z,13.90
2017-10-24T20:07:38.363Z,11.03
2017-10-24T20:10:05.816Z,15.27
2017-10-24T20:12:33.271Z,13.83
2017-10-24T20:15:00.714Z,13.40
2017-10-24T20:17:28.162Z,14.73
2017-10-24T20:19:56.991Z,15.73
2017-10-24T20:22:24.458Z,11.47
2017-10-24T20:24:51.897Z,13.63
2017-10-24T20:27:19.358Z,14.80
2017-10-24T20:29:46.804Z,16.00
2017-10-24T20:32:14.288Z,16.23
2017-10-24T20:34:41.739Z,14.73
2017-10-24T20:37:09.177Z,17.00
2017-10-24T20:39:36.623Z,13.77
2017-10-24T20:42:04.075Z,14.43
2017-10-24T20:44:31.520Z,13.83
2017-10-24T20:46:59.737Z,12.77
2017-10-24T20:49:27.190Z,13.37
2017-10-24T20:51:54.629Z,14.67
2017-10-24T20:54:22.076Z,12.80
2017-10-24T20:56:50.301Z,15.63
2017-10-24T20:59:17.736Z,12.33
2017-10-24T21:01:45.178Z,19.07
2017-10-24T21:04:12.622Z,13.30
2017-10-24T21:06:40.079Z,15.03
2017-10-24T21:09:07.525Z,15.77
2017-10-24T21:11:35.734Z,16.43
2017-10-24T21:14:03.887Z,16.20
2017-10-24T21:16:32.411Z,15.00
2017-10-24T21:18:59.856Z,16.27
2017-10-24T21:21:27.715Z,14.90
2017-10-24T21:23:55.526Z,17.90
2017-10-24T21:26:22.951Z,17.07
2017-10-24T21:28:50.395Z,17.47
2017-10-24T21:31:17.845Z,17.33
2017-10-24T21:33:45.282Z,14.10
2017-10-24T21:36:13.505Z,15.23
2017-10-24T21:38:41.487Z,15.00
2017-10-24T21:41:09.374Z,15.43
2017-10-24T21:43:38.002Z,14.10
2017-10-24T21:46:05.877Z,14.23
2017-10-24T21:48:33.333Z,12.53
2017-10-24T21:51:01.188Z,13.43
2017-10-24T21:53:28.631Z,16.03
2017-10-24T21:55:56.105Z,15.30
2017-10-24T21:58:23.565Z,17.30
2017-10-24T22:00:51.130Z,14.27
2017-10-24T22:03:21.051Z,14.47
2017-10-24T22:05:49.071Z,14.47
2017-10-24T22:08:16.517Z,18.37
2017-10-24T22:10:45.496Z,16.60
2017-10-24T22:13:12.953Z,14.10
2017-10-24T22:15:40.934Z,16.87
2017-10-24T22:18:08.413Z,15.60
2017-10-24T22:20:35.873Z,20.07
2017-10-24T22:23:04.111Z,15.97
2017-10-24T22:25:31.558Z,14.63
2017-10-24T22:27:59.021Z,15.50
2017-10-24T22:30:27.192Z,16.10
2017-10-24T22:32:54.648Z,17.00
2017-10-24T22:35:22.115Z,16.67
2017-10-24T22:37:49.642Z,16.93
2017-10-24T22:40:17.091Z,17.03
2017-10-24T22:42:44.544Z,17.50
2017-10-24T22:45:11.995Z,21.63
2017-10-24T22:47:40.131Z,18.00
2017-10-24T22:50:07.998Z,17.33
2017-10-24T22:52:36.074Z,20.17
2017-10-24T22:55:03.530Z,17.63
2017-10-24T22:57:30.986Z,17.00
2017-10-24T22:59:58.991Z,23.67
2017-10-24T23:02:26.442Z,17.20
2017-10-24T23:04:55.926Z,18.20
2017-10-24T23:07:23.361Z,19.37
2017-10-24T23:09:50.802Z,18.70
2017-10-24T23:12:18.264Z,18.10
2017-10-24T23:14:45.699Z,19.23
2017-10-24T23:17:19.439Z,15.57
2017-10-24T23:19:46.897Z,18.60
2017-10-24T23:22:14.357Z,18.77
2017-10-24T23:24:43.043Z,18.97
2017-10-24T23:27:10.500Z,21.63
2017-10-24T23:29:37.956Z,19.33
2017-10-24T23:32:07.999Z,15.87
2017-10-24T23:34:36.207Z,19.60
2017-10-24T23:37:03.665Z,18.60
2017-10-24T23:39:31.126Z,19.63
2017-10-24T23:41:58.571Z,18.73
2017-10-24T23:44:26.036Z,22.10
2017-10-24T23:46:53.486Z,24.00
2017-10-24T23:49:23.415Z,19.73
2017-10-24T23:51:50.862Z,17.63
2017-10-24T23:54:25.178Z,21.90
2017-10-24T23:56:52.641Z,19.23
2017-10-24T23:59:20.100Z,18.50
